• Join FlightAware (Why Join?)
  • Login
  • US Flag 
11:38PM EDT


 

Airport Tracker/Info


-or-


 

Live Flight TrackerFlight Track Log ✈ RPA3457 ✈ 29-Apr-2013 ✈ KBTV - KDCA

Flight Track Log - Related Links

Times and Time Zones

All times are in EDT time to prevent confusion due to time zone crossing. See the RPA3457 flight status page for this flight to view local times or setup timezone preferences in your user account.

Time Position Orientation Groundspeed Altitude Reporting Facility
EDT Latitude Longitude Course Direction KTS MPH feet Rate Location/Type
08:15AM 44.3617 -73.0964 195° South 232 267 6,000  Level Boston Center
08:16AM 44.0638 -73.3009 194° South  Level FlightAware Approximate
08:16AM 44.3014 -73.0550 154° Southeast 244 281 9,600  Level Boston Center
08:17AM 43.9620 -73.3349 194° South  Level FlightAware Approximate
08:17AM 44.2244 -73.0369 170° South 250 288 12,900  Level Boston Center
08:18AM 43.8606 -73.3711 195° South  Level FlightAware Approximate
08:18AM 44.1553 -73.0739 201° Southwest 250 288 13,100  Level Boston Center
08:19AM 43.7595 -73.4090 195° South  Level FlightAware Approximate
08:19AM 44.0864 -73.1106 201° Southwest 262 302 16,100  Level Boston Center
08:20AM 43.6584 -73.4469 195° South  Level FlightAware Approximate
08:20AM 44.0008 -73.1558 201° Southwest 298 343 18,600  Level Boston Center
08:21AM 43.9192 -73.1981 200° South 310 357 21,100 2,400 Climbing Boston Center
08:22AM 43.8356 -73.2431 201° Southwest 316 364 23,400 2,160 Climbing Boston Center
08:23AM 43.7497 -73.2908 202° Southwest 326 375 25,500 1,920 Climbing Boston Center
08:24AM 43.6703 -73.3300 200° South 334 384 27,300 1,680 Climbing Boston Center
08:25AM 43.5783 -73.3744 199° South 341 392 28,900 1,320 Climbing Boston Center
08:26AM 43.4883 -73.4217 201° Southwest 348 400 30,000 540 Climbing Boston Center
08:27AM 43.3939 -73.4714 201° Southwest 353 406 30,000  Level Boston Center
08:28AM 43.2997 -73.5183 200° South 353 406 30,000  Level Boston Center
08:29AM 43.2097 -73.5653 201° Southwest 353 406 30,000  Level Boston Center
08:30AM 43.1069 -73.6231 202° Southwest 353 406 30,000  Level Boston Center
08:31AM 43.0147 -73.6697 200° South 353 406 30,000  Level Boston Center
08:32AM 42.9206 -73.7158 200° South 353 406 30,000  Level Boston Center
08:33AM 42.8283 -73.7650 201° Southwest 358 412 30,000  Level Boston Center
08:34AM 42.7258 -73.7825 187° South 358 412 30,000  Level Boston Center
08:35AM 42.6261 -73.7664 173° South 353 406 30,000  Level Boston Center
08:36AM 42.5283 -73.7531 174° South 353 406 30,000  Level Boston Center
08:37AM 42.4264 -73.7394 174° South 363 418 30,000  Level Boston Center
08:38AM 42.3244 -73.7233 173° South 368 423 30,000  Level Boston Center
08:39AM 42.2328 -73.7047 171° South 368 423 30,000 -60 Level Boston Center
08:40AM 42.1267 -73.6914 175° South 375 432 29,900  Descending Boston Center
08:41AM 42.0275 -73.6167 151° Southeast 375 432 30,000  Climbing Boston Center
08:42AM 41.9617 -73.5150 131° Southeast 358 412 30,000  Level Boston Center
08:43AM 41.9003 -73.4192 131° Southeast 364 419 30,000  Level Boston Center
08:44AM 41.8344 -73.3150 130° Southeast 364 419 30,000  Level Boston Center
08:45AM 41.7642 -73.2111 132° Southeast 364 419 30,000  Level Boston Center
08:46AM 41.6919 -73.1183 136° Southeast 369 425 30,000  Level Boston Center
08:47AM 41.5961 -73.1008 172° South 334 384 30,000  Level Boston Center
08:48AM 41.5167 -73.1414 201° Southwest 313 360 30,000  Level Boston Center
08:49AM 41.4639 -73.2433 235° Southwest 283 326 30,000  Level Boston Center
08:50AM 41.4089 -73.3453 234° Southwest 312 359 30,000  Level Boston Center
08:52AM 41.3214 -73.5117 235° Southwest 343 395 30,000  Level New York Center
08:53AM 41.2583 -73.6250 234° Southwest 349 402 30,000  Level New York Center
08:54AM 41.2019 -73.7192 232° Southwest 349 402 30,000  Level New York Center
08:55AM 41.1453 -73.8131 231° Southwest 339 390 30,000  Level New York Center
08:56AM 41.0886 -73.9094 232° Southwest 339 390 30,000  Level New York Center
08:57AM 41.0342 -74.0033 232° Southwest 339 390 30,000  Level New York Center
08:58AM 40.9772 -74.0967 231° Southwest 339 390 30,000 -360 Level New York Center
08:59AM 40.9164 -74.1869 228° Southwest 339 390 29,300 -900 Descending New York Center
09:00AM 40.8636 -74.2831 234° Southwest 339 390 28,300 -660 Descending New York Center
09:01AM 40.8044 -74.3761 230° Southwest 334 384 28,000 -180 Descending New York Center
09:02AM 40.7494 -74.4689 232° Southwest 334 384 28,000  Level New York Center
09:03AM 40.6947 -74.5592 231° Southwest 334 384 28,000  Level New York Center
09:04AM 40.6417 -74.6492 232° Southwest 334 384 28,000  Level New York Center
09:05AM 40.5822 -74.7414 230° Southwest 334 384 28,000 -420 Level New York Center
09:06AM 40.5253 -74.8256 228° Southwest 329 379 27,200 -960 Descending New York Center
09:07AM 40.4642 -74.9092 226° Southwest 324 373 26,100 -1,140 Descending New York Center
09:08AM 40.4047 -74.9956 228° Southwest 324 373 25,000 -1,140 Descending New York Center
09:09AM 40.3475 -75.0792 228° Southwest 324 373 23,900 -1,140 Descending New York Center
09:10AM 40.2883 -75.1600 226° Southwest 319 367 22,800 -1,140 Descending New York Center
09:11AM 40.2308 -75.2433 228° Southwest 319 367 21,700 -1,140 Descending New York Center
09:12AM 40.1714 -75.3264 227° Southwest 319 367 20,600 -900 Descending New York Center
09:13AM 40.1142 -75.4042 226° Southwest 313 360 20,000 -360 Descending New York Center
09:14AM 40.0567 -75.4869 228° Southwest 313 360 20,000  Level New York Center
09:15AM 39.9972 -75.5642 225° Southwest 308 354 20,000 -420 Level New York Center
09:16AM 39.9531 -75.6264 227° Southwest 308 354 19,200 -1,020 Descending New York Center
09:17AM 39.8883 -75.7300 231° Southwest 308 354 18,000 -1,020 Descending New York Center
09:18AM 39.8456 -75.8081 234° Southwest 298 343 17,200 -960 Descending New York Center
09:19AM 39.7997 -75.8994 237° Southwest 288 331 16,100 -1,080 Descending New York Center
09:20AM 39.7564 -75.9825 236° Southwest 288 331 15,100 -1,020 Descending New York Center
09:21AM 39.7089 -76.0683 234° Southwest 288 331 14,100 -600 Descending New York Center
09:22AM 39.6700 -76.1436 236° Southwest 288 331 14,000 -60 Descending New York Center
09:23AM 39.6167 -76.2333 232° Southwest 281 323 14,000 -360 Level Potomac TRACON
09:24AM 39.5667 -76.3167 232° Southwest 282 325 13,400 -1,020 Descending Potomac TRACON
09:25AM 39.5000 -76.3667 210° Southwest 280 322 12,000 -720 Descending Potomac TRACON
09:26AM 39.4333 -76.4333 218° Southwest 280 322 12,000  Level Potomac TRACON
09:27AM 39.3833 -76.4833 218° Southwest 278 320 12,000  Level Potomac TRACON
09:28AM 39.3167 -76.5333 210° Southwest 282 325 12,000 -120 Level Potomac TRACON
09:28AM 39.2500 -76.5833 210° Southwest 281 323 11,800 -900 Descending Potomac TRACON
09:30AM 39.1833 -76.6500 218° Southwest 281 323 10,200 -900 Descending Potomac TRACON
09:31AM 39.1333 -76.7167 226° Southwest 273 314 10,000 -120 Descending Potomac TRACON
09:31AM 39.0667 -76.7833 218° Southwest 276 318 10,000 -780 Level Potomac TRACON
09:32AM 39.0167 -76.8333 218° Southwest 269 310 8,600 -1,560 Descending Potomac TRACON
09:33AM 38.9667 -76.9000 226° Southwest 260 299 7,100 -1,380 Descending Potomac TRACON
09:34AM 38.9167 -76.9500 218° Southwest 251 289 6,000 -1,020 Descending Potomac TRACON
09:35AM 38.8500 -76.9500 180° South 252 290 5,100 -1,380 Descending Potomac TRACON
09:36AM 38.7833 -76.9500 180° South 233 268 3,300 -1,380 Descending Potomac TRACON
09:37AM 38.7333 -76.9333 165° South 220 253 2,500 -480 Descending Potomac TRACON
09:38AM 38.6833 -76.9833 218° Southwest 219 252 2,500  Level Potomac TRACON